»·PEaware :: N1Q KSNA-KSMO

N1Q :: KSNA-KSMO

FLIGHT INFORMATION

Flight Status: Arrived
Operator: Privately registered:
United States
More flights under this callsign
Pilot: Max W. (2591)
Aircraft: Unknown
(DA62)
More flights by this aircraft type
Origin: KSNA John Wayne-Orange Co
United States
Destination: KSMO Santa Monica Mun
United States
More flights between these airports :: More routes between these airports
Route: +SLI V8 POXKU V363 BAYJY V186 DARTS
File this flight plan on PilotEdge
Remarks:
Altitude:
(Current/Filed)
6,000ft
Speed:
(Current/Filed)
450kts
Departed: 15-Apr-18 08:45 PM
Arrived: 15-Apr-18 09:15 PM
Distance/Time
Traveled:
35nm/0:30
Distance/Time
To Go:
Arrived

Flight Plot

Page will automatically refresh every two minutes.


Map Options




Map Legend


Flown Route
Filed Route
Departure Airport
Arrival Airport
Navaid (VOR, NDB)
Fix

Horizontal Profiles

Position Reports

Time Latitude Longitude Heading Altitude Ground
Speed
15-Apr-18 19:58 33.671519 -117.867198 26 60ft 0kts
15-Apr-18 19:59 33.671519 -117.867198 26 60ft 0kts
15-Apr-18 20:00 33.671519 -117.867198 26 60ft 0kts
15-Apr-18 20:01 33.671519 -117.867198 26 60ft 0kts
15-Apr-18 20:02 33.671519 -117.867198 26 60ft 0kts
15-Apr-18 20:03 33.671519 -117.867198 26 60ft 0kts
15-Apr-18 20:04 33.671519 -117.867198 26 60ft 0kts
15-Apr-18 20:05 33.671519 -117.867198 26 60ft 0kts
15-Apr-18 20:06 33.671519 -117.867198 26 60ft 0kts
15-Apr-18 20:07 33.671519 -117.867198 26 60ft 0kts
15-Apr-18 20:08 33.671519 -117.867198 26 60ft 0kts
15-Apr-18 20:09 33.671519 -117.867198 26 60ft 0kts
15-Apr-18 20:10 33.671519 -117.867198 26 60ft 0kts
15-Apr-18 20:11 33.671519 -117.867198 26 60ft 0kts
15-Apr-18 20:12 33.671519 -117.867198 26 60ft 0kts
15-Apr-18 20:13 33.671519 -117.867198 26 60ft 0kts
15-Apr-18 20:14 33.671519 -117.867198 26 60ft 0kts
15-Apr-18 20:15 33.671519 -117.867198 26 60ft 0kts
15-Apr-18 20:16 33.671519 -117.867198 26 60ft 0kts
15-Apr-18 20:17 33.671519 -117.867198 26 60ft 0kts
15-Apr-18 20:18 33.671519 -117.867198 26 60ft 0kts
15-Apr-18 20:19 33.671519 -117.867198 26 60ft 0kts
15-Apr-18 20:20 33.671519 -117.867198 26 60ft 0kts
15-Apr-18 20:21 33.671519 -117.867198 26 60ft 0kts
15-Apr-18 20:22 33.671519 -117.867198 26 60ft 0kts
15-Apr-18 20:23 33.671519 -117.867198 26 60ft 0kts
15-Apr-18 20:24 33.671519 -117.867198 26 60ft 0kts
15-Apr-18 20:25 33.671519 -117.867198 26 60ft 0kts
15-Apr-18 20:26 33.671519 -117.867198 26 60ft 0kts
15-Apr-18 20:27 33.671519 -117.867198 26 60ft 0kts
15-Apr-18 20:28 33.671519 -117.867198 26 60ft 0kts
15-Apr-18 20:29 33.671519 -117.867198 26 60ft 0kts
15-Apr-18 20:30 33.671519 -117.867198 26 60ft 0kts
15-Apr-18 20:31 33.671519 -117.867198 26 60ft 0kts
15-Apr-18 20:32 33.671519 -117.867198 26 60ft 0kts
15-Apr-18 20:33 33.671519 -117.867198 26 60ft 0kts
15-Apr-18 20:34 33.671519 -117.867198 26 60ft 0kts
15-Apr-18 20:35 33.671519 -117.867198 26 60ft 0kts
15-Apr-18 20:36 33.672012 -117.867219 291 60ft 7kts
15-Apr-18 20:37 33.672911 -117.867465 43 60ft 6kts
15-Apr-18 20:38 33.673924 -117.867156 36 60ft 3kts
15-Apr-18 20:39 33.675111 -117.866415 18 60ft 6kts
15-Apr-18 20:40 33.677130 -117.865133 21 60ft 9kts
15-Apr-18 20:41 33.678697 -117.864185 27 60ft 9kts
15-Apr-18 20:42 33.679897 -117.863539 306 60ft 0kts
15-Apr-18 20:43 33.679706 -117.864428 209 60ft 26kts
15-Apr-18 20:44 33.663752 -117.880652 229 854ft 92kts
15-Apr-18 20:45 33.647905 -117.904219 231 2080ft 93kts
15-Apr-18 20:46 33.640266 -117.931529 298 3313ft 97kts
15-Apr-18 20:47 33.661004 -117.950066 318 4435ft 102kts
15-Apr-18 20:48 33.684725 -117.968854 343 5617ft 110kts
15-Apr-18 20:49 33.717912 -117.959037 11 6023ft 149kts
15-Apr-18 20:50 33.759882 -117.944353 25 6006ft 166kts
15-Apr-18 20:51 33.799731 -117.916098 29 6010ft 166kts
15-Apr-18 20:52 33.823292 -117.868723 66 6011ft 169kts
15-Apr-18 20:53 33.843921 -117.817943 65 6009ft 169kts
15-Apr-18 20:54 33.873570 -117.783621 356 6008ft 164kts
15-Apr-18 20:55 33.918815 -117.784498 354 6000ft 165kts
15-Apr-18 20:56 33.964775 -117.785281 354 6008ft 166kts
15-Apr-18 20:57 34.008173 -117.792649 299 6016ft 151kts
15-Apr-18 20:58 34.023455 -117.838491 285 6024ft 149kts
15-Apr-18 20:59 34.037499 -117.883498 285 6025ft 149kts
15-Apr-18 21:00 34.051470 -117.928536 285 6023ft 149kts
15-Apr-18 21:01 34.065674 -117.974817 285 6021ft 149kts
15-Apr-18 21:02 34.078992 -118.017965 285 6018ft 150kts
15-Apr-18 21:03 34.092865 -118.063108 285 6013ft 150kts
15-Apr-18 21:04 34.104542 -118.101402 285 5823ft 156kts
15-Apr-18 21:05 34.105731 -118.152694 262 5131ft 159kts
15-Apr-18 21:06 34.102404 -118.202746 248 4881ft 147kts
15-Apr-18 21:07 34.099474 -118.252869 250 4266ft 160kts
15-Apr-18 21:08 34.084636 -118.301801 240 3600ft 163kts
15-Apr-18 21:09 34.072680 -118.346604 248 2535ft 107kts
15-Apr-18 21:10 34.064083 -118.377297 247 1957ft 88kts
15-Apr-18 21:11 34.053291 -118.403889 232 1448ft 92kts
15-Apr-18 21:12 34.038185 -118.424717 221 867ft 77kts
15-Apr-18 21:13 34.021673 -118.444415 224 207ft 84kts
15-Apr-18 21:14 34.014995 -118.451124 156 136ft 5kts
15-Apr-18 21:15 34.014411 -118.451037 115 136ft 0kts
15-Apr-18 21:16 34.014411 -118.451037 115 136ft 0kts
15-Apr-18 21:17 34.014411 -118.451037 115 136ft 0kts
15-Apr-18 21:18 34.014411 -118.451037 115 136ft 0kts

Navigation Log

Ident Type
1. KSNA Airport
2. SLI Navaid
3. AHEIM Fix
4. OLLIE Fix
5. POXKU Fix
6. POXKU Fix
7. PRADO Fix
8. BAYJY Fix
9. BAYJY Fix
10. ADAMM Fix
11. PIRRO Fix
12. ITSME Fix
13. ELMOO Fix
14. PURMS Fix
15. DARTS Fix
16. KSMO Airport